Stonewall, Texas
Current Conditions -  °F | °C
As of 4:55 AM on Thursday 23 Oct 2014 (Local Time) from KT82 Reporting Station
Overcast Overcast  
Wind Chill: 64°   Ceiling: 10000
Heat Index: 64°   Visibility: 10mi
Dew Point: 60°   Wind: 3mph
Humidity: 87%   Direction: 200°SSW
Pressure: 30.11"   Gusts: NA
Location:  30.24°N, 98.67°W
Report Text: KT82 230955Z AUTO 20003KT 10SM OVC100 18/15 A3011 RMK AO2 T01760154
Loading
Personal Weather Stations






























Interactive Weather Map
Tropical Storm Tracking
New forecast layout! Learn more

10-Day Weather Forecast

Advertisements
Track Severe Weather on mobile